Etusivu
METAR-TAF:

METAR-TAF

Lentoasemat :

Kramfors, Ruotsi

Leveyspiiri: 63-03N, Pituuspiiri: 017-46E, korkeus merenpinnasta: 10 m

Tämänhetkinen sää

Tämä raportti tehtiin 20 minuuttia sitten, kello 06.20 UTC
tyyntä
Lämpötila 7°C
Kosteus 100%
Ilmanpaine 1011 hPa
Näkyvyys: 2500 m

METAR: ESNK 240620Z AUTO 00000KT 2500 VV003 07/07 Q1011

Aika: 08:40 (06:40 UTC)

Sääennuste

Tämä raportti tehtiin 1 tunti ja 10 minuuttia sitten, kello 05.30 UTC
Ennuste voimassa 24. päivästä klo 06 UTC - 24. päivään klo 15 UTC
Tuuli 3 kn eri suunnista
Näkyvyys: 0200 m
200 ft:n korkeudessa
sumua
Tulossa
24. päivästä klo 06 UTC - 24. päivään klo 08 UTC
Näkyvyys 10 km tai enemmän
ei pilviä alle 1500 m:ssä eikä cumulonimbus-pilviä

TAF: ESNK 240530Z 2406/2415 VRB03KT 0200 FG VV002 BECMG 2406/2408 CAVOK

Säähavainnot ja -ennusteet yli 4000 lentoasemalta (METAR- ja TAF-raportit).

Käytössä olevat sääasemat on merkitty karttaan keltaisilla ja punaisilla pisteillä.

Aseta hiiri pisteen päälle nähdäksesi sääaseman nimen.

Klikkaa sitten nähdäksesi säähavainnot ja -ennusteet.

Kartan vaihtaminen: klikkaa mustalla rastilla varustettuja vihreitä pisteitä, niin voit zoomata sisään; viivalla varustettua vihreää pistettä, niin voit zoomata ulos tai vihreitä nuolia, niin pääset viereisille kartoille.


METAR-TAF: